Terminal Aerodrome Forecast
Issued by NWS

Home | Current Version | Previous Version | Text Only | Print | Product List | Glossary On
Versions: 1 2 3 4 5 6 7 8 9 10 11 12 13 14 15 16 17 18
000
FTUS46 KSEW 312320
TAFHQM
TAF
KHQM 312320Z 0100/0124 24010KT P6SM SKC
     FM010600 24007KT 1SM BR OVC004
      TEMPO 0111/0115 1/4SM FG OVC002
     FM011700 27006KT 6SM HZ SCT005
     FM012100 25012KT P6SM SKC=

USA.gov is the U.S. government's official web portal to all federal, state and local government web resources and services.